createdAt,value
2023-04-23T00:02:22.916Z,3.63
2023-04-23T00:04:52.793Z,3.42
2023-04-23T00:07:22.661Z,3.40
2023-04-23T00:09:53.803Z,3.77
2023-04-23T00:12:22.529Z,3.60
2023-04-23T00:14:52.907Z,3.50
2023-04-23T00:17:22.008Z,3.78
2023-04-23T00:19:51.714Z,4.00
2023-04-23T00:22:20.505Z,3.50
2023-04-23T00:24:49.036Z,3.47
2023-04-23T00:27:18.086Z,3.67
2023-04-23T00:29:46.558Z,3.55
2023-04-23T00:32:16.200Z,3.28
2023-04-23T00:34:44.385Z,3.57
2023-04-23T00:37:12.677Z,3.30
2023-04-23T00:39:41.243Z,3.33
2023-04-23T00:42:12.410Z,3.65
2023-04-23T00:44:41.777Z,3.78
2023-04-23T00:47:12.133Z,3.25
2023-04-23T00:49:43.235Z,3.40
2023-04-23T00:52:11.513Z,3.70
2023-04-23T00:54:39.996Z,3.17
2023-04-23T00:57:09.009Z,3.30
2023-04-23T00:59:37.657Z,3.70
2023-04-23T01:02:06.152Z,3.55
2023-04-23T01:04:34.871Z,3.10
2023-04-23T01:07:04.601Z,3.60
2023-04-23T01:09:33.516Z,3.50
2023-04-23T01:12:03.633Z,3.60
2023-04-23T01:14:32.036Z,3.10
2023-04-23T01:17:01.094Z,3.33
2023-04-23T01:19:29.489Z,3.22
2023-04-23T01:22:01.054Z,3.20
2023-04-23T01:24:30.724Z,3.17
2023-04-23T01:26:59.680Z,3.30
2023-04-23T01:29:27.989Z,3.55
2023-04-23T01:31:56.612Z,3.35
2023-04-23T01:34:24.836Z,3.75
2023-04-23T01:36:53.460Z,3.88
2023-04-23T01:39:21.804Z,4.32
2023-04-23T01:41:51.681Z,4.13
2023-04-23T01:44:20.252Z,3.83
2023-04-23T01:46:48.604Z,4.18
2023-04-23T01:49:17.032Z,4.13
2023-04-23T01:51:45.635Z,4.00
2023-04-23T01:54:13.932Z,3.92
2023-04-23T01:56:42.164Z,4.05
2023-04-23T01:59:11.721Z,4.30
2023-04-23T02:01:44.495Z,4.53
2023-04-23T02:04:13.864Z,4.28
2023-04-23T02:06:43.717Z,4.40
2023-04-23T02:09:12.099Z,4.47
2023-04-23T02:11:40.511Z,4.43
2023-04-23T02:14:09.459Z,4.28
2023-04-23T02:16:39.551Z,4.20
2023-04-23T02:19:07.760Z,4.28
2023-04-23T02:21:35.990Z,4.00
2023-04-23T02:24:05.407Z,4.05
2023-04-23T02:26:33.674Z,4.50
2023-04-23T02:29:01.896Z,4.50
2023-04-23T02:31:30.308Z,3.97
2023-04-23T02:34:00.132Z,3.92
2023-04-23T02:36:31.108Z,4.07
2023-04-23T02:38:59.303Z,4.18
2023-04-23T02:41:27.550Z,3.63
2023-04-23T02:43:55.792Z,4.28
2023-04-23T02:46:24.356Z,4.32
2023-04-23T02:48:52.631Z,4.00
2023-04-23T02:51:22.241Z,4.38
2023-04-23T02:53:50.616Z,4.40
2023-04-23T02:56:19.757Z,3.90
2023-04-23T02:58:47.982Z,4.03
2023-04-23T03:01:16.527Z,4.05
2023-04-23T03:03:45.166Z,3.97
2023-04-23T03:06:13.604Z,3.92
2023-04-23T03:08:43.248Z,4.38
2023-04-23T03:11:11.496Z,4.43
2023-04-23T03:13:39.737Z,4.10
2023-04-23T03:16:08.844Z,4.40
2023-04-23T03:18:37.083Z,4.10
2023-04-23T03:21:05.448Z,4.20
2023-04-23T03:23:33.674Z,4.35
2023-04-23T03:26:03.542Z,4.35
2023-04-23T03:28:31.914Z,4.40
2023-04-23T03:31:00.192Z,4.38
2023-04-23T03:33:28.407Z,4.47
2023-04-23T03:35:56.692Z,4.03
2023-04-23T03:38:24.997Z,4.25
2023-04-23T03:40:53.241Z,4.20
2023-04-23T03:43:22.822Z,3.78
2023-04-23T03:45:51.068Z,4.35
2023-04-23T03:48:19.297Z,4.50
2023-04-23T03:50:47.529Z,4.13
2023-04-23T03:53:17.791Z,4.45
2023-04-23T03:55:46.108Z,4.57
2023-04-23T03:58:14.350Z,4.78
2023-04-23T04:00:43.955Z,4.32
2023-04-23T04:03:12.333Z,4.80
2023-04-23T04:05:40.714Z,4.78
2023-04-23T04:08:09.142Z,4.95
2023-04-23T04:10:38.996Z,5.05
2023-04-23T04:13:07.300Z,4.53
2023-04-23T04:15:35.571Z,5.03
2023-04-23T04:18:05.349Z,4.80
2023-04-23T04:20:33.573Z,4.70
2023-04-23T04:23:01.886Z,4.90
2023-04-23T04:25:30.157Z,4.53
2023-04-23T04:27:58.551Z,4.57
2023-04-23T04:30:27.375Z,3.85
2023-04-23T04:32:55.956Z,3.58
2023-04-23T04:35:26.043Z,4.03
2023-04-23T04:37:55.050Z,4.40
2023-04-23T04:40:26.469Z,4.00
2023-04-23T04:42:55.184Z,3.95
2023-04-23T04:45:23.936Z,4.00
2023-04-23T04:47:52.634Z,3.53
2023-04-23T04:50:20.955Z,3.67
2023-04-23T04:52:50.570Z,4.28
2023-04-23T04:55:18.887Z,4.65
2023-04-23T04:57:47.177Z,4.05
2023-04-23T05:00:23.674Z,4.00
2023-04-23T05:02:52.310Z,3.85
2023-04-23T05:05:21.370Z,4.38
2023-04-23T05:07:51.104Z,4.30
2023-04-23T05:10:19.590Z,4.10
2023-04-23T05:12:48.175Z,3.78
2023-04-23T05:15:16.549Z,3.90
2023-04-23T05:17:45.036Z,4.25
2023-04-23T05:20:13.874Z,4.22
2023-04-23T05:22:42.980Z,4.00
2023-04-23T05:25:13.103Z,3.50
2023-04-23T05:27:42.025Z,3.92
2023-04-23T05:30:12.145Z,3.28
2023-04-23T05:32:40.686Z,3.35
2023-04-23T05:35:09.644Z,3.80
2023-04-23T05:37:37.904Z,3.75
2023-04-23T05:40:07.895Z,3.60
2023-04-23T05:42:38.286Z,3.88
2023-04-23T05:45:08.995Z,3.45
2023-04-23T05:47:37.765Z,3.05
2023-04-23T05:50:07.604Z,3.45
2023-04-23T05:52:37.629Z,3.30
2023-04-23T05:55:06.943Z,2.78
2023-04-23T05:57:35.227Z,2.72
2023-04-23T06:00:09.396Z,4.18
2023-04-23T06:02:37.802Z,3.75
2023-04-23T06:05:07.193Z,3.65
2023-04-23T06:07:36.028Z,3.90
2023-04-23T06:10:04.874Z,3.85
2023-04-23T06:12:33.329Z,4.05
2023-04-23T06:15:01.536Z,4.15
2023-04-23T06:17:31.156Z,2.28
2023-04-23T06:19:59.436Z,4.30
2023-04-23T06:22:27.735Z,3.75
2023-04-23T06:24:55.992Z,3.63
2023-04-23T06:27:24.259Z,3.47
2023-04-23T06:29:52.492Z,4.10
2023-04-23T06:32:22.172Z,3.72
2023-04-23T06:35:00.791Z,3.67
2023-04-23T06:37:30.844Z,3.70
2023-04-23T06:40:00.170Z,3.73
2023-04-23T06:42:28.507Z,4.10
2023-04-23T06:44:56.829Z,3.72
2023-04-23T06:47:25.137Z,3.30
2023-04-23T06:49:54.750Z,4.20
2023-04-23T06:52:25.272Z,3.78
2023-04-23T06:54:53.571Z,4.50
2023-04-23T06:57:22.111Z,3.70
2023-04-23T06:59:50.512Z,4.20
2023-04-23T07:02:18.823Z,4.35
2023-04-23T07:04:47.755Z,4.60
2023-04-23T07:07:17.540Z,4.65
2023-04-23T07:09:45.858Z,4.73
2023-04-23T07:12:14.199Z,4.50
2023-04-23T07:14:42.545Z,4.72
2023-04-23T07:17:11.165Z,4.75
2023-04-23T07:19:39.655Z,4.80
2023-04-23T07:22:07.938Z,4.97
2023-04-23T07:24:37.533Z,5.05
2023-04-23T07:27:07.802Z,5.20
2023-04-23T07:29:36.056Z,4.78
2023-04-23T07:32:04.754Z,4.28
2023-04-23T07:34:33.734Z,4.95
2023-04-23T07:37:02.785Z,4.65
2023-04-23T07:39:31.004Z,4.78
2023-04-23T07:42:02.026Z,4.97
2023-04-23T07:44:30.711Z,4.90
2023-04-23T07:46:59.160Z,4.53
2023-04-23T07:49:27.404Z,4.07
2023-04-23T07:51:55.712Z,3.97
2023-04-23T07:54:25.628Z,4.00
2023-04-23T07:56:54.212Z,3.92
2023-04-23T07:59:23.865Z,5.00
2023-04-23T08:01:52.771Z,3.73
2023-04-23T08:04:21.220Z,3.42
2023-04-23T08:06:49.818Z,4.10
2023-04-23T08:09:18.068Z,3.50
2023-04-23T08:11:46.326Z,4.10
2023-04-23T08:14:14.634Z,3.88
2023-04-23T08:16:44.442Z,3.40
2023-04-23T08:19:12.979Z,3.42
2023-04-23T08:21:41.496Z,3.88
2023-04-23T08:24:09.904Z,3.90
2023-04-23T08:26:38.167Z,3.47
2023-04-23T08:29:07.837Z,3.50
2023-04-23T08:31:37.436Z,2.85
2023-04-23T08:34:07.076Z,2.88
2023-04-23T08:36:35.610Z,3.30
2023-04-23T08:39:04.320Z,3.50
2023-04-23T08:41:36.411Z,4.03
2023-04-23T08:44:12.775Z,3.90
2023-04-23T08:46:44.271Z,3.90
2023-04-23T08:49:16.758Z,3.70
2023-04-23T08:51:51.132Z,3.25
2023-04-23T08:54:23.868Z,3.38
2023-04-23T08:56:52.582Z,3.35
2023-04-23T08:59:23.060Z,3.70
2023-04-23T09:04:21.139Z,3.08
2023-04-23T09:06:49.423Z,3.65
2023-04-23T09:09:18.169Z,3.80
2023-04-23T09:11:46.423Z,3.60
2023-04-23T09:14:15.319Z,2.95
2023-04-23T09:16:44.443Z,4.00
2023-04-23T09:19:12.937Z,3.80
2023-04-23T09:21:43.208Z,5.20
2023-04-23T09:24:12.744Z,3.20
2023-04-23T09:26:46.780Z,3.20
2023-04-23T09:29:17.600Z,3.60
2023-04-23T09:31:47.640Z,3.08
2023-04-23T09:34:16.561Z,2.90
2023-04-23T09:36:46.889Z,3.55
2023-04-23T09:39:16.823Z,3.22
2023-04-23T09:41:46.841Z,2.88
2023-04-23T09:44:19.005Z,3.03
2023-04-23T09:46:47.316Z,3.20
2023-04-23T09:49:16.722Z,4.72
2023-04-23T09:51:48.082Z,4.07
2023-04-23T09:54:18.601Z,3.53
2023-04-23T09:56:51.185Z,3.20
2023-04-23T09:59:32.525Z,3.40
2023-04-23T10:02:12.564Z,3.30
2023-04-23T10:04:41.948Z,3.45
2023-04-23T10:07:19.855Z,4.03
2023-04-23T10:09:49.306Z,3.58
2023-04-23T10:12:36.971Z,3.45
2023-04-23T10:15:08.064Z,2.67
2023-04-23T10:17:37.009Z,2.70
2023-04-23T10:20:06.959Z,3.20
2023-04-23T10:22:37.887Z,2.75
2023-04-23T10:25:09.749Z,2.88
2023-04-23T10:27:51.322Z,2.90
2023-04-23T10:30:22.362Z,4.03
2023-04-23T10:32:51.365Z,3.20
2023-04-23T10:35:19.789Z,3.17
2023-04-23T10:37:49.722Z,3.75
2023-04-23T10:40:23.267Z,3.13
2023-04-23T10:42:51.799Z,4.20
2023-04-23T10:45:24.805Z,4.70
2023-04-23T10:47:57.471Z,3.78
2023-04-23T10:50:27.519Z,3.50
2023-04-23T10:52:58.727Z,4.20
2023-04-23T10:55:28.568Z,3.90
2023-04-23T10:58:02.355Z,3.55
2023-04-23T11:00:44.187Z,3.25
2023-04-23T11:03:33.033Z,14.63
2023-04-23T11:06:05.136Z,3.83
2023-04-23T11:08:36.544Z,3.63
2023-04-23T11:11:08.689Z,5.88
2023-04-23T11:13:37.054Z,3.92
2023-04-23T11:16:15.720Z,4.28
2023-04-23T11:19:02.387Z,4.43
2023-04-23T11:21:58.461Z,3.63
2023-04-23T11:24:29.617Z,3.85
2023-04-23T11:26:58.059Z,3.58
2023-04-23T11:29:28.110Z,3.80
2023-04-23T11:34:28.298Z,4.30
2023-04-23T11:36:58.480Z,4.03
2023-04-23T11:39:28.474Z,3.83
2023-04-23T11:41:57.097Z,3.38
2023-04-23T11:44:25.424Z,4.28
2023-04-23T11:46:53.704Z,4.03
2023-04-23T11:49:22.092Z,4.03
2023-04-23T11:51:50.319Z,3.90
2023-04-23T11:54:18.563Z,3.67
2023-04-23T11:56:48.207Z,4.00
2023-04-23T11:59:16.575Z,4.13
2023-04-23T12:01:46.074Z,3.00
2023-04-23T12:04:16.021Z,3.10
2023-04-23T12:06:45.655Z,2.90
2023-04-23T12:09:15.330Z,3.43
2023-04-23T12:11:44.877Z,3.08
2023-04-23T12:14:15.561Z,3.70
2023-04-23T12:16:44.966Z,3.70
2023-04-23T12:19:15.365Z,3.65
2023-04-23T12:24:18.458Z,3.10
2023-04-23T12:26:48.329Z,3.42
2023-04-23T12:29:19.358Z,3.38
2023-04-23T12:31:47.669Z,3.13
2023-04-23T12:34:16.759Z,3.83
2023-04-23T12:36:47.381Z,3.78
2023-04-23T12:39:29.391Z,3.92
2023-04-23T12:42:00.166Z,3.63
2023-04-23T12:44:30.106Z,3.67
2023-04-23T12:47:00.282Z,3.28
2023-04-23T12:49:29.522Z,3.33
2023-04-23T12:52:01.120Z,4.57
2023-04-23T12:54:31.234Z,4.43
2023-04-23T12:56:59.786Z,4.70
2023-04-23T12:59:29.385Z,4.28
2023-04-23T13:01:58.045Z,4.30
2023-04-23T13:04:26.417Z,4.75
2023-04-23T13:06:54.791Z,4.90
2023-04-23T13:09:26.859Z,4.20
2023-04-23T13:11:55.613Z,4.20
2023-04-23T13:14:24.025Z,4.32
2023-04-23T13:16:53.669Z,4.45
2023-04-23T13:19:21.984Z,4.35
2023-04-23T13:21:50.274Z,4.40
2023-04-23T13:24:18.606Z,3.85
2023-04-23T13:26:46.835Z,3.78
2023-04-23T13:29:16.043Z,4.10
2023-04-23T13:31:44.368Z,3.60
2023-04-23T13:34:14.019Z,3.83
2023-04-23T13:36:42.342Z,4.07
2023-04-23T13:39:12.666Z,4.25
2023-04-23T13:44:08.901Z,3.50
2023-04-23T13:46:37.461Z,4.53
2023-04-23T13:49:05.803Z,4.00
2023-04-23T13:51:36.204Z,3.35
2023-04-23T13:54:05.268Z,3.88
2023-04-23T13:56:33.594Z,3.88
2023-04-23T14:01:35.308Z,3.50
2023-04-23T14:04:04.721Z,3.35
2023-04-23T14:06:33.045Z,3.10
2023-04-23T14:09:02.627Z,3.35
2023-04-23T14:11:30.848Z,3.28
2023-04-23T14:14:00.797Z,3.25
2023-04-23T14:16:29.227Z,2.75
2023-04-23T14:18:58.487Z,3.20
2023-04-23T14:21:26.774Z,3.30
2023-04-23T14:23:57.674Z,3.30
2023-04-23T14:26:47.315Z,3.50
2023-04-23T14:29:25.284Z,2.72
2023-04-23T14:31:53.620Z,3.00
2023-04-23T14:34:22.351Z,3.38
2023-04-23T14:36:52.806Z,3.17
2023-04-23T14:39:22.497Z,3.38
2023-04-23T14:41:52.142Z,3.22
2023-04-23T14:44:22.407Z,3.25
2023-04-23T14:49:20.829Z,3.13
2023-04-23T14:51:50.854Z,3.08
2023-04-23T14:54:19.229Z,3.30
2023-04-23T14:56:47.590Z,3.20
2023-04-23T14:59:17.355Z,3.30
2023-04-23T15:01:45.766Z,3.13
2023-04-23T15:04:14.389Z,3.40
2023-04-23T15:06:42.669Z,3.05
2023-04-23T15:09:10.891Z,3.60
2023-04-23T15:11:39.238Z,3.30
2023-04-23T15:14:09.637Z,3.20
2023-04-23T15:19:11.533Z,3.03
2023-04-23T15:21:42.443Z,3.30
2023-04-23T15:24:10.794Z,3.28
2023-04-23T15:26:39.200Z,2.92
2023-04-23T15:29:09.046Z,2.90
2023-04-23T15:31:39.414Z,2.90
2023-04-23T15:34:09.278Z,2.92
2023-04-23T15:36:38.474Z,2.90
2023-04-23T15:39:07.511Z,2.75
2023-04-23T15:41:39.422Z,3.10
2023-04-23T15:44:10.945Z,2.65
2023-04-23T15:46:41.069Z,3.28
2023-04-23T15:49:09.962Z,3.05
2023-04-23T15:51:38.637Z,2.80
2023-04-23T15:54:08.724Z,2.90
2023-04-23T15:59:06.237Z,3.30
2023-04-23T16:01:34.597Z,3.00
2023-04-23T16:06:35.531Z,3.50
2023-04-23T16:09:06.802Z,2.72
2023-04-23T16:11:35.706Z,2.65
2023-04-23T16:14:04.617Z,3.15
2023-04-23T16:16:33.136Z,3.33
2023-04-23T16:19:01.959Z,3.17
2023-04-23T16:21:32.744Z,3.33
2023-04-23T16:24:01.265Z,3.25
2023-04-23T16:26:29.856Z,2.83
2023-04-23T16:29:11.466Z,3.10
2023-04-23T16:31:45.697Z,3.00
2023-04-23T16:34:14.166Z,3.15
2023-04-23T16:36:44.136Z,2.88
2023-04-23T16:39:12.420Z,2.97
2023-04-23T16:41:40.692Z,3.10
2023-04-23T16:44:09.035Z,3.25
2023-04-23T16:46:37.441Z,4.35
2023-04-23T16:49:05.816Z,3.53
2023-04-23T16:51:34.136Z,2.90
2023-04-23T16:54:03.975Z,3.03
2023-04-23T16:56:32.914Z,2.95
2023-04-23T16:59:01.721Z,3.47
2023-04-23T17:01:30.096Z,3.20
2023-04-23T17:03:58.470Z,3.15
2023-04-23T17:06:28.128Z,3.05
2023-04-23T17:08:57.768Z,4.20
2023-04-23T17:11:28.241Z,4.00
2023-04-23T17:13:57.474Z,4.15
2023-04-23T17:16:26.997Z,4.10
2023-04-23T17:18:55.681Z,4.50
2023-04-23T17:21:24.271Z,4.07
2023-04-23T17:23:52.568Z,3.97
2023-04-23T17:26:21.035Z,4.65
2023-04-23T17:28:50.656Z,4.68
2023-04-23T17:31:19.246Z,4.87
2023-04-23T17:33:49.309Z,5.03
2023-04-23T17:36:18.143Z,5.07
2023-04-23T17:38:46.371Z,5.22
2023-04-23T17:41:14.776Z,5.20
2023-04-23T17:43:43.137Z,5.85
2023-04-23T17:46:13.095Z,5.40
2023-04-23T17:48:41.737Z,5.30
2023-04-23T17:51:09.966Z,5.93
2023-04-23T17:53:38.892Z,5.20
2023-04-23T17:56:07.223Z,5.70
2023-04-23T17:58:36.122Z,4.97
2023-04-23T18:01:05.829Z,5.10
2023-04-23T18:03:35.770Z,5.07
2023-04-23T18:06:04.243Z,5.25
2023-04-23T18:08:32.776Z,4.97
2023-04-23T18:11:01.212Z,5.72
2023-04-23T18:13:29.634Z,5.55
2023-04-23T18:15:57.872Z,5.40
2023-04-23T18:18:26.323Z,6.15
2023-04-23T18:20:55.963Z,5.70
2023-04-23T18:23:26.064Z,5.10
2023-04-23T18:25:54.519Z,5.75
2023-04-23T18:28:22.821Z,5.88
2023-04-23T18:30:51.257Z,5.63
2023-04-23T18:33:27.138Z,5.53
2023-04-23T18:35:59.415Z,6.05
2023-04-23T18:38:32.894Z,6.40
2023-04-23T18:41:04.429Z,6.75
2023-04-23T18:43:33.486Z,6.90
2023-04-23T18:46:02.264Z,6.50
2023-04-23T18:48:48.415Z,6.50
2023-04-23T18:51:26.511Z,6.22
2023-04-23T18:53:54.790Z,6.18
2023-04-23T18:56:25.077Z,6.30
2023-04-23T18:58:53.521Z,6.60
2023-04-23T19:01:21.848Z,6.68
2023-04-23T19:03:50.155Z,6.80
2023-04-23T19:06:18.687Z,6.70
2023-04-23T19:08:48.302Z,7.00
2023-04-23T19:11:16.565Z,5.30
2023-04-23T19:13:44.767Z,2.90
2023-04-23T19:16:13.117Z,1.52
2023-04-23T19:18:41.363Z,0.80
2023-04-23T19:21:09.681Z,0.60
2023-04-23T19:23:38.196Z,0.60
2023-04-23T19:26:07.809Z,0.80
2023-04-23T19:28:36.045Z,0.63
2023-04-23T19:31:04.799Z,0.93
2023-04-23T19:33:33.105Z,2.05
2023-04-23T19:36:01.421Z,0.90
2023-04-23T19:38:29.650Z,0.80
2023-04-23T19:40:57.971Z,0.98
2023-04-23T19:43:27.627Z,1.15
2023-04-23T19:45:55.916Z,1.07
2023-04-23T19:48:24.195Z,0.95
2023-04-23T19:50:52.444Z,1.00
2023-04-23T19:53:21.557Z,1.50
2023-04-23T19:55:49.854Z,1.08
2023-04-23T19:58:18.692Z,1.30
2023-04-23T20:00:48.453Z,1.50
2023-04-23T20:03:17.055Z,0.93
2023-04-23T20:05:46.290Z,1.38
2023-04-23T20:08:25.682Z,1.00
2023-04-23T20:10:54.205Z,1.10
2023-04-23T20:13:23.657Z,1.50
2023-04-23T20:15:55.043Z,1.33
2023-04-23T20:18:25.542Z,1.60
2023-04-23T20:23:22.226Z,1.27
2023-04-23T20:25:50.502Z,1.90
2023-04-23T20:28:18.756Z,1.80
2023-04-23T20:30:47.571Z,1.42
2023-04-23T20:33:18.810Z,1.63
2023-04-23T20:35:47.781Z,1.30
2023-04-23T20:38:19.227Z,1.52
2023-04-23T20:40:47.803Z,1.60
2023-04-23T20:43:17.324Z,1.45
2023-04-23T20:45:46.630Z,1.50
2023-04-23T20:48:15.416Z,1.70
2023-04-23T20:50:45.068Z,1.63
2023-04-23T20:53:14.267Z,1.70
2023-04-23T20:55:42.594Z,1.60
2023-04-23T20:58:11.051Z,1.65
2023-04-23T21:00:39.437Z,1.50
2023-04-23T21:03:08.019Z,1.90
2023-04-23T21:05:38.165Z,1.70
2023-04-23T21:08:07.856Z,1.50
2023-04-23T21:10:36.237Z,1.80
2023-04-23T21:13:04.558Z,1.83
2023-04-23T21:15:35.008Z,2.20
2023-04-23T21:20:32.682Z,1.85
2023-04-23T21:23:00.925Z,1.98
2023-04-23T21:25:30.754Z,2.15
2023-04-23T21:27:59.553Z,2.45
2023-04-23T21:30:33.888Z,2.00
2023-04-23T21:33:02.196Z,1.90
2023-04-23T21:35:30.750Z,2.20
2023-04-23T21:37:59.128Z,2.30
2023-04-23T21:40:27.517Z,2.35
2023-04-23T21:42:57.153Z,2.30
2023-04-23T21:45:25.353Z,2.40
2023-04-23T21:47:53.637Z,2.50
2023-04-23T21:50:22.147Z,2.47
2023-04-23T21:52:53.122Z,2.30
2023-04-23T21:55:21.830Z,2.05
2023-04-23T21:57:50.447Z,1.98
2023-04-23T22:00:20.451Z,2.10
2023-04-23T22:02:48.989Z,2.42
2023-04-23T22:05:20.094Z,2.05
2023-04-23T22:07:48.697Z,2.63
2023-04-23T22:10:17.251Z,2.20
2023-04-23T22:12:46.296Z,2.50
2023-04-23T22:15:16.353Z,2.30
2023-04-23T22:17:50.342Z,2.50
2023-04-23T22:20:23.547Z,2.17
2023-04-23T22:22:51.869Z,2.05
2023-04-23T22:25:20.081Z,1.90
2023-04-23T22:27:48.468Z,1.80
2023-04-23T22:30:16.827Z,1.50
2023-04-23T22:32:46.762Z,1.67
2023-04-23T22:35:15.152Z,1.85
2023-04-23T22:37:43.522Z,2.00
2023-04-23T22:40:12.232Z,1.95
2023-04-23T22:42:40.525Z,1.73
2023-04-23T22:45:09.398Z,1.73
2023-04-23T22:47:37.767Z,1.80
2023-04-23T22:50:09.060Z,1.60
2023-04-23T22:52:37.783Z,1.60
2023-04-23T22:55:07.472Z,1.08
2023-04-23T22:57:35.943Z,1.27
2023-04-23T23:00:07.399Z,1.38
2023-04-23T23:02:35.910Z,1.50
2023-04-23T23:05:04.639Z,1.17
2023-04-23T23:07:34.304Z,1.70
2023-04-23T23:10:03.752Z,1.30
2023-04-23T23:12:32.046Z,1.50
2023-04-23T23:15:00.310Z,1.30
2023-04-23T23:17:28.705Z,1.30
2023-04-23T23:19:57.022Z,0.90
2023-04-23T23:22:25.276Z,1.42
2023-04-23T23:24:54.936Z,1.00
2023-04-23T23:27:23.138Z,1.30
2023-04-23T23:29:51.398Z,1.45
2023-04-23T23:32:19.654Z,1.15
2023-04-23T23:34:47.933Z,1.08
2023-04-23T23:37:16.595Z,0.93
2023-04-23T23:39:45.747Z,1.38
2023-04-23T23:42:15.968Z,1.35
2023-04-23T23:44:44.225Z,1.20
2023-04-23T23:47:12.488Z,1.25
2023-04-23T23:49:41.592Z,1.27
2023-04-23T23:52:13.101Z,1.20
2023-04-23T23:54:41.544Z,1.10
2023-04-23T23:57:10.084Z,1.17
2023-04-23T23:59:39.781Z,1.02
